sensor_id;sensor_type;location;lat;lon;timestamp;pressure;altitude;pressure_sealevel;temperature;humidity
61874;BME280;49692;55.052;73.310;2022-09-03T00:01:08;100039.53;;;17.83;74.64
61874;BME280;49692;55.052;73.310;2022-09-03T00:03:51;100042.09;;;17.85;74.66
61874;BME280;49692;55.052;73.310;2022-09-03T00:06:30;100036.56;;;17.75;74.93
61874;BME280;49692;55.052;73.310;2022-09-03T00:09:24;100033.81;;;17.89;74.68
61874;BME280;49692;55.052;73.310;2022-09-03T00:12:00;100039.88;;;17.79;75.18
61874;BME280;49692;55.052;73.310;2022-09-03T00:15:07;100024.22;;;17.87;74.75
61874;BME280;49692;55.052;73.310;2022-09-03T00:17:52;100033.25;;;17.84;74.86
61874;BME280;49692;55.052;73.310;2022-09-03T00:23:05;100017.84;;;17.89;74.70
61874;BME280;49692;55.052;73.310;2022-09-03T00:26:45;100024.47;;;17.97;74.33
61874;BME280;49692;55.052;73.310;2022-09-03T00:32:04;100022.53;;;17.99;74.50
61874;BME280;49692;55.052;73.310;2022-09-03T00:34:39;100031.03;;;17.91;75.14
61874;BME280;49692;55.052;73.310;2022-09-03T00:37:13;100036.13;;;17.81;75.28
61874;BME280;49692;55.052;73.310;2022-09-03T00:39:39;100023.78;;;17.80;75.22
61874;BME280;49692;55.052;73.310;2022-09-03T00:45:23;100028.16;;;17.81;75.19
61874;BME280;49692;55.052;73.310;2022-09-03T00:51:09;100027.31;;;18.06;74.66
61874;BME280;49692;55.052;73.310;2022-09-03T00:53:59;100010.63;;;18.04;74.90
61874;BME280;49692;55.052;73.310;2022-09-03T01:10:11;100014.78;;;17.96;74.72
61874;BME280;49692;55.052;73.310;2022-09-03T01:12:54;99994.78;;;18.03;74.52
61874;BME280;49692;55.052;73.310;2022-09-03T01:18:33;99991.38;;;18.01;74.67
61874;BME280;49692;55.052;73.310;2022-09-03T01:21:07;100010.94;;;18.00;75.02
61874;BME280;49692;55.052;73.310;2022-09-03T01:29:50;99992.00;;;18.17;74.13
61874;BME280;49692;55.052;73.310;2022-09-03T01:35:43;99994.19;;;18.36;73.90
61874;BME280;49692;55.052;73.310;2022-09-03T01:38:31;99987.56;;;18.42;73.54
61874;BME280;49692;55.052;73.310;2022-09-03T01:46:42;99974.25;;;18.42;73.44
61874;BME280;49692;55.052;73.310;2022-09-03T01:49:33;99971.34;;;18.58;73.10
61874;BME280;49692;55.052;73.310;2022-09-03T01:52:28;99960.78;;;18.57;73.31
61874;BME280;49692;55.052;73.310;2022-09-03T01:57:42;99963.75;;;18.65;73.28
61874;BME280;49692;55.052;73.310;2022-09-03T02:00:17;99956.66;;;19.01;72.19
61874;BME280;49692;55.052;73.310;2022-09-03T02:02:51;99959.94;;;19.40;71.28
61874;BME280;49692;55.052;73.310;2022-09-03T02:05:20;99959.56;;;19.34;70.41
61874;BME280;49692;55.052;73.310;2022-09-03T02:08:02;99969.63;;;19.41;70.88
61874;BME280;49692;55.052;73.310;2022-09-03T02:16:13;99954.97;;;19.58;69.71
61874;BME280;49692;55.052;73.310;2022-09-03T02:18:54;99954.63;;;19.52;69.47
61874;BME280;49692;55.052;73.310;2022-09-03T02:21:24;99952.69;;;19.65;68.94
61874;BME280;49692;55.052;73.310;2022-09-03T02:23:52;99936.59;;;19.67;68.48
61874;BME280;49692;55.052;73.310;2022-09-03T02:26:23;99940.09;;;19.90;68.45
61874;BME280;49692;55.052;73.310;2022-09-03T02:28:51;99938.03;;;19.82;68.70
61874;BME280;49692;55.052;73.310;2022-09-03T02:31:18;99925.31;;;19.74;68.47
61874;BME280;49692;55.052;73.310;2022-09-03T02:33:47;99934.06;;;19.99;67.85
61874;BME280;49692;55.052;73.310;2022-09-03T02:36:16;99935.72;;;20.12;68.10
61874;BME280;49692;55.052;73.310;2022-09-03T02:38:45;99932.09;;;20.13;67.54
61874;BME280;49692;55.052;73.310;2022-09-03T02:41:13;99924.56;;;20.07;67.75
61874;BME280;49692;55.052;73.310;2022-09-03T02:43:53;99914.84;;;20.28;66.98
61874;BME280;49692;55.052;73.310;2022-09-03T02:46:43;99916.53;;;20.29;67.03
61874;BME280;49692;55.052;73.310;2022-09-03T02:49:12;99915.59;;;20.19;67.10
61874;BME280;49692;55.052;73.310;2022-09-03T02:51:43;99909.34;;;20.41;67.68
61874;BME280;49692;55.052;73.310;2022-09-03T02:54:14;99907.91;;;20.37;67.32
61874;BME280;49692;55.052;73.310;2022-09-03T02:56:41;99903.41;;;20.38;66.88
61874;BME280;49692;55.052;73.310;2022-09-03T02:59:13;99922.22;;;20.69;67.08
61874;BME280;49692;55.052;73.310;2022-09-03T03:01:55;99904.09;;;20.51;66.38
61874;BME280;49692;55.052;73.310;2022-09-03T03:04:23;99917.84;;;20.68;66.63
61874;BME280;49692;55.052;73.310;2022-09-03T03:07:00;99910.13;;;20.64;65.63
61874;BME280;49692;55.052;73.310;2022-09-03T03:09:27;99909.53;;;20.82;65.15
61874;BME280;49692;55.052;73.310;2022-09-03T03:11:55;99903.59;;;20.90;65.64
61874;BME280;49692;55.052;73.310;2022-09-03T03:14:32;99901.53;;;20.93;64.35
61874;BME280;49692;55.052;73.310;2022-09-03T03:17:04;99902.38;;;20.83;64.76
61874;BME280;49692;55.052;73.310;2022-09-03T03:19:36;99900.88;;;21.01;64.61
61874;BME280;49692;55.052;73.310;2022-09-03T03:22:06;99902.44;;;21.04;63.90
61874;BME280;49692;55.052;73.310;2022-09-03T03:24:43;99897.16;;;21.14;64.91
61874;BME280;49692;55.052;73.310;2022-09-03T03:27:11;99897.00;;;21.15;64.11
61874;BME280;49692;55.052;73.310;2022-09-03T03:29:40;99901.53;;;21.15;63.69
61874;BME280;49692;55.052;73.310;2022-09-03T03:32:07;99891.78;;;21.35;64.24
61874;BME280;49692;55.052;73.310;2022-09-03T03:34:34;99890.97;;;21.44;62.97
61874;BME280;49692;55.052;73.310;2022-09-03T03:37:07;99885.50;;;21.46;63.42
61874;BME280;49692;55.052;73.310;2022-09-03T03:39:44;99878.06;;;21.49;61.85
61874;BME280;49692;55.052;73.310;2022-09-03T03:42:11;99889.75;;;21.48;62.24
61874;BME280;49692;55.052;73.310;2022-09-03T03:44:47;99882.16;;;21.53;61.75
61874;BME280;49692;55.052;73.310;2022-09-03T03:47:23;99874.59;;;21.68;61.70
61874;BME280;49692;55.052;73.310;2022-09-03T03:49:58;99867.38;;;21.80;61.35
61874;BME280;49692;55.052;73.310;2022-09-03T03:52:35;99857.56;;;22.00;60.71
61874;BME280;49692;55.052;73.310;2022-09-03T03:55:04;99866.03;;;22.06;60.74
61874;BME280;49692;55.052;73.310;2022-09-03T03:57:36;99869.28;;;22.09;60.43
61874;BME280;49692;55.052;73.310;2022-09-03T04:00:08;99866.16;;;22.14;60.03
61874;BME280;49692;55.052;73.310;2022-09-03T04:02:47;99864.50;;;22.32;60.09
61874;BME280;49692;55.052;73.310;2022-09-03T04:05:21;99855.94;;;22.39;59.72
61874;BME280;49692;55.052;73.310;2022-09-03T04:07:48;99853.81;;;22.32;59.71
61874;BME280;49692;55.052;73.310;2022-09-03T04:10:24;99860.84;;;22.43;59.63
61874;BME280;49692;55.052;73.310;2022-09-03T04:12:53;99861.44;;;22.67;59.13
61874;BME280;49692;55.052;73.310;2022-09-03T04:15:20;99849.00;;;22.56;59.60
61874;BME280;49692;55.052;73.310;2022-09-03T04:17:55;99855.09;;;22.77;58.95
61874;BME280;49692;55.052;73.310;2022-09-03T04:20:27;99852.97;;;22.81;58.76
61874;BME280;49692;55.052;73.310;2022-09-03T04:22:54;99848.34;;;22.73;58.85
61874;BME280;49692;55.052;73.310;2022-09-03T04:25:31;99845.06;;;22.89;59.05
61874;BME280;49692;55.052;73.310;2022-09-03T04:27:58;99843.88;;;23.02;58.16
61874;BME280;49692;55.052;73.310;2022-09-03T04:30:25;99841.59;;;23.17;58.13
61874;BME280;49692;55.052;73.310;2022-09-03T04:32:52;99830.97;;;23.25;57.94
61874;BME280;49692;55.052;73.310;2022-09-03T04:35:29;99833.19;;;23.49;57.02
61874;BME280;49692;55.052;73.310;2022-09-03T04:38:34;99829.03;;;24.11;56.45
61874;BME280;49692;55.052;73.310;2022-09-03T04:41:08;99831.34;;;24.24;55.68
61874;BME280;49692;55.052;73.310;2022-09-03T04:43:35;99833.19;;;24.41;54.52
61874;BME280;49692;55.052;73.310;2022-09-03T04:46:04;99839.25;;;24.62;54.57
61874;BME280;49692;55.052;73.310;2022-09-03T04:48:51;99841.13;;;24.87;53.38
61874;BME280;49692;55.052;73.310;2022-09-03T04:51:32;99822.78;;;25.01;52.32
61874;BME280;49692;55.052;73.310;2022-09-03T04:54:05;99838.34;;;25.24;52.38
61874;BME280;49692;55.052;73.310;2022-09-03T04:56:50;99838.84;;;25.54;51.68
61874;BME280;49692;55.052;73.310;2022-09-03T04:59:31;99834.53;;;25.69;51.71
61874;BME280;49692;55.052;73.310;2022-09-03T05:01:58;99829.22;;;25.77;50.50
61874;BME280;49692;55.052;73.310;2022-09-03T05:04:27;99833.84;;;26.02;50.39
61874;BME280;49692;55.052;73.310;2022-09-03T05:06:55;99820.00;;;26.05;50.03
61874;BME280;49692;55.052;73.310;2022-09-03T05:09:22;99829.66;;;26.24;50.47
61874;BME280;49692;55.052;73.310;2022-09-03T05:11:57;99804.06;;;26.20;50.47
61874;BME280;49692;55.052;73.310;2022-09-03T05:14:28;99823.56;;;26.14;50.82
61874;BME280;49692;55.052;73.310;2022-09-03T05:16:57;99814.81;;;26.28;49.93
61874;BME280;49692;55.052;73.310;2022-09-03T05:19:27;99809.44;;;26.28;50.43
61874;BME280;49692;55.052;73.310;2022-09-03T05:21:54;99810.28;;;26.20;51.89
61874;BME280;49692;55.052;73.310;2022-09-03T05:24:26;99806.56;;;26.21;49.74
61874;BME280;49692;55.052;73.310;2022-09-03T05:26:55;99810.63;;;26.34;49.64
61874;BME280;49692;55.052;73.310;2022-09-03T05:29:29;99803.38;;;26.34;50.00
61874;BME280;49692;55.052;73.310;2022-09-03T05:31:56;99805.44;;;26.49;50.32
61874;BME280;49692;55.052;73.310;2022-09-03T05:34:23;99804.41;;;26.58;49.42
61874;BME280;49692;55.052;73.310;2022-09-03T05:36:52;99802.03;;;26.71;49.44
61874;BME280;49692;55.052;73.310;2022-09-03T05:39:20;99800.19;;;26.80;48.70
61874;BME280;49692;55.052;73.310;2022-09-03T05:41:46;99798.94;;;27.08;48.62
61874;BME280;49692;55.052;73.310;2022-09-03T05:44:15;99805.16;;;27.25;48.06
61874;BME280;49692;55.052;73.310;2022-09-03T05:46:42;99799.56;;;27.43;47.75
61874;BME280;49692;55.052;73.310;2022-09-03T05:49:08;99799.03;;;27.47;46.91
61874;BME280;49692;55.052;73.310;2022-09-03T05:51:40;99779.19;;;27.63;46.26
61874;BME280;49692;55.052;73.310;2022-09-03T05:54:20;99804.66;;;27.69;43.21
61874;BME280;49692;55.052;73.310;2022-09-03T05:57:00;99813.22;;;27.81;42.42
61874;BME280;49692;55.052;73.310;2022-09-03T05:59:49;99818.00;;;28.02;43.36
61874;BME280;49692;55.052;73.310;2022-09-03T06:02:21;99818.28;;;27.84;43.44
61874;BME280;49692;55.052;73.310;2022-09-03T06:04:47;99815.25;;;27.79;40.69
61874;BME280;49692;55.052;73.310;2022-09-03T06:07:14;99812.03;;;27.84;46.40
61874;BME280;49692;55.052;73.310;2022-09-03T06:09:43;99816.91;;;27.88;40.58
61874;BME280;49692;55.052;73.310;2022-09-03T06:12:13;99801.59;;;27.72;40.29
61874;BME280;49692;55.052;73.310;2022-09-03T06:14:40;99822.38;;;27.63;37.39
61874;BME280;49692;55.052;73.310;2022-09-03T06:17:09;99814.28;;;27.63;39.25
61874;BME280;49692;55.052;73.310;2022-09-03T06:19:54;99815.09;;;27.72;34.96
61874;BME280;49692;55.052;73.310;2022-09-03T06:22:20;99817.59;;;27.82;33.49
61874;BME280;49692;55.052;73.310;2022-09-03T06:24:50;99810.44;;;27.98;32.81
61874;BME280;49692;55.052;73.310;2022-09-03T06:27:17;99805.81;;;28.06;33.45
61874;BME280;49692;55.052;73.310;2022-09-03T06:29:46;99820.13;;;28.15;34.12
61874;BME280;49692;55.052;73.310;2022-09-03T06:32:13;99817.72;;;28.20;32.04
61874;BME280;49692;55.052;73.310;2022-09-03T06:34:41;99821.72;;;28.24;32.86
61874;BME280;49692;55.052;73.310;2022-09-03T06:37:08;99821.13;;;28.14;31.80
61874;BME280;49692;55.052;73.310;2022-09-03T06:39:35;99823.13;;;28.20;31.79
61874;BME280;49692;55.052;73.310;2022-09-03T06:42:02;99823.41;;;28.26;33.26
61874;BME280;49692;55.052;73.310;2022-09-03T06:44:35;99822.22;;;28.28;34.17
61874;BME280;49692;55.052;73.310;2022-09-03T06:47:02;99821.38;;;28.28;31.25
61874;BME280;49692;55.052;73.310;2022-09-03T06:49:28;99817.97;;;28.34;33.93
61874;BME280;49692;55.052;73.310;2022-09-03T06:52:01;99816.03;;;28.43;31.59
61874;BME280;49692;55.052;73.310;2022-09-03T06:54:33;99820.47;;;28.59;31.26
61874;BME280;49692;55.052;73.310;2022-09-03T06:57:00;99809.97;;;28.64;30.34
61874;BME280;49692;55.052;73.310;2022-09-03T06:59:27;99809.50;;;28.75;32.17
61874;BME280;49692;55.052;73.310;2022-09-03T07:02:03;99812.41;;;28.74;31.88
61874;BME280;49692;55.052;73.310;2022-09-03T07:04:31;99811.56;;;28.73;30.95
61874;BME280;49692;55.052;73.310;2022-09-03T07:07:00;99817.94;;;28.80;30.97
61874;BME280;49692;55.052;73.310;2022-09-03T07:09:27;99810.38;;;28.91;30.32
61874;BME280;49692;55.052;73.310;2022-09-03T07:11:58;99813.84;;;28.99;31.43
61874;BME280;49692;55.052;73.310;2022-09-03T07:14:26;99825.41;;;29.08;29.92
61874;BME280;49692;55.052;73.310;2022-09-03T07:16:57;99823.59;;;29.24;30.58
61874;BME280;49692;55.052;73.310;2022-09-03T07:19:31;99837.09;;;29.39;29.78
61874;BME280;49692;55.052;73.310;2022-09-03T07:21:59;99843.00;;;29.42;29.58
61874;BME280;49692;55.052;73.310;2022-09-03T07:24:25;99851.22;;;29.49;29.67
61874;BME280;49692;55.052;73.310;2022-09-03T07:26:52;99836.81;;;29.49;30.52
61874;BME280;49692;55.052;73.310;2022-09-03T07:29:20;99842.69;;;29.52;30.31
61874;BME280;49692;55.052;73.310;2022-09-03T07:31:51;99847.09;;;29.68;30.27
61874;BME280;49692;55.052;73.310;2022-09-03T07:34:28;99842.97;;;29.72;30.61
61874;BME280;49692;55.052;73.310;2022-09-03T07:36:56;99842.59;;;29.75;30.83
61874;BME280;49692;55.052;73.310;2022-09-03T07:39:25;99851.88;;;29.81;31.05
61874;BME280;49692;55.052;73.310;2022-09-03T07:41:51;99837.66;;;29.79;30.03
61874;BME280;49692;55.052;73.310;2022-09-03T07:44:23;99844.78;;;30.02;30.21
61874;BME280;49692;55.052;73.310;2022-09-03T07:46:50;99834.59;;;30.04;29.31
61874;BME280;49692;55.052;73.310;2022-09-03T07:49:18;99845.66;;;30.24;28.81
61874;BME280;49692;55.052;73.310;2022-09-03T07:51:46;99827.84;;;30.15;28.50
61874;BME280;49692;55.052;73.310;2022-09-03T07:54:25;99838.38;;;30.25;28.90
61874;BME280;49692;55.052;73.310;2022-09-03T07:56:52;99834.44;;;30.27;28.84
61874;BME280;49692;55.052;73.310;2022-09-03T07:59:25;99827.78;;;30.30;28.28
61874;BME280;49692;55.052;73.310;2022-09-03T08:01:52;99832.47;;;30.36;28.98
61874;BME280;49692;55.052;73.310;2022-09-03T08:04:22;99833.16;;;30.45;29.09
61874;BME280;49692;55.052;73.310;2022-09-03T08:06:49;99848.78;;;30.43;28.52
61874;BME280;49692;55.052;73.310;2022-09-03T08:09:23;99861.44;;;30.57;29.22
61874;BME280;49692;55.052;73.310;2022-09-03T08:11:59;99855.09;;;30.72;28.60
61874;BME280;49692;55.052;73.310;2022-09-03T08:14:26;99850.38;;;30.80;29.03
61874;BME280;49692;55.052;73.310;2022-09-03T08:16:56;99855.25;;;30.92;28.59
61874;BME280;49692;55.052;73.310;2022-09-03T08:19:26;99850.38;;;31.02;28.45
61874;BME280;49692;55.052;73.310;2022-09-03T08:21:53;99858.94;;;31.06;28.44
61874;BME280;49692;55.052;73.310;2022-09-03T08:24:20;99866.56;;;31.24;28.30
61874;BME280;49692;55.052;73.310;2022-09-03T08:26:49;99864.56;;;31.04;29.27
61874;BME280;49692;55.052;73.310;2022-09-03T08:29:17;99871.88;;;31.04;29.03
61874;BME280;49692;55.052;73.310;2022-09-03T08:31:45;99872.25;;;31.01;29.67
61874;BME280;49692;55.052;73.310;2022-09-03T08:34:11;99876.25;;;31.05;29.42
61874;BME280;49692;55.052;73.310;2022-09-03T08:36:40;99871.22;;;31.02;29.77
61874;BME280;49692;55.052;73.310;2022-09-03T08:39:09;99861.63;;;30.99;30.51
61874;BME280;49692;55.052;73.310;2022-09-03T08:53:20;99846.00;;;30.58;31.50
61874;BME280;49692;55.052;73.310;2022-09-03T08:55:50;99849.19;;;30.61;31.35
61874;BME280;49692;55.052;73.310;2022-09-03T08:58:22;99853.09;;;30.59;31.04
61874;BME280;49692;55.052;73.310;2022-09-03T09:01:05;99853.16;;;30.65;31.34
61874;BME280;49692;55.052;73.310;2022-09-03T09:06:49;99872.13;;;30.22;32.34
61874;BME280;49692;55.052;73.310;2022-09-03T09:09:54;99864.41;;;30.04;32.65
61874;BME280;49692;55.052;73.310;2022-09-03T09:18:13;99825.81;;;29.80;33.63
61874;BME280;49692;55.052;73.310;2022-09-03T09:21:06;99818.03;;;29.62;34.65
61874;BME280;49692;55.052;73.310;2022-09-03T09:23:46;99805.06;;;29.72;34.38
61874;BME280;49692;55.052;73.310;2022-09-03T09:26:17;99802.66;;;29.63;34.86
61874;BME280;49692;55.052;73.310;2022-09-03T09:28:46;99805.66;;;29.53;36.89
61874;BME280;49692;55.052;73.310;2022-09-03T09:31:15;99809.94;;;29.32;39.43
61874;BME280;49692;55.052;73.310;2022-09-03T09:33:44;99805.56;;;29.16;40.50
61874;BME280;49692;55.052;73.310;2022-09-03T09:36:16;99805.63;;;29.08;40.99
61874;BME280;49692;55.052;73.310;2022-09-03T09:38:45;99802.81;;;29.01;41.20
61874;BME280;49692;55.052;73.310;2022-09-03T09:41:18;99796.22;;;29.04;41.13
61874;BME280;49692;55.052;73.310;2022-09-03T09:44:04;99795.09;;;28.98;41.95
61874;BME280;49692;55.052;73.310;2022-09-03T09:46:36;99804.25;;;29.12;41.51
61874;BME280;49692;55.052;73.310;2022-09-03T09:49:30;99805.47;;;29.24;41.15
61874;BME280;49692;55.052;73.310;2022-09-03T09:52:09;99802.97;;;29.23;41.66
61874;BME280;49692;55.052;73.310;2022-09-03T09:54:47;99804.25;;;28.97;43.73
61874;BME280;49692;55.052;73.310;2022-09-03T09:57:16;99804.78;;;28.92;42.74
61874;BME280;49692;55.052;73.310;2022-09-03T10:00:09;99808.22;;;28.86;42.29
61874;BME280;49692;55.052;73.310;2022-09-03T10:02:49;99814.00;;;28.68;43.82
61874;BME280;49692;55.052;73.310;2022-09-03T10:05:28;99807.03;;;28.50;43.91
61874;BME280;49692;55.052;73.310;2022-09-03T10:08:19;99825.16;;;28.42;44.51
61874;BME280;49692;55.052;73.310;2022-09-03T10:10:52;99830.03;;;28.23;47.29
61874;BME280;49692;55.052;73.310;2022-09-03T10:13:41;99808.81;;;28.35;45.86
61874;BME280;49692;55.052;73.310;2022-09-03T10:16:25;99812.91;;;28.31;48.71
61874;BME280;49692;55.052;73.310;2022-09-03T10:19:19;99783.41;;;28.44;47.09
61874;BME280;49692;55.052;73.310;2022-09-03T10:22:03;99782.50;;;28.52;46.29
61874;BME280;49692;55.052;73.310;2022-09-03T10:27:16;99745.44;;;28.91;44.85
61874;BME280;49692;55.052;73.310;2022-09-03T10:29:45;99729.41;;;28.89;47.21
61874;BME280;49692;55.052;73.310;2022-09-03T10:32:26;99742.00;;;28.67;48.58
61874;BME280;49692;55.052;73.310;2022-09-03T10:35:46;99719.63;;;28.88;48.70
61874;BME280;49692;55.052;73.310;2022-09-03T10:38:33;99718.09;;;28.86;49.70
61874;BME280;49692;55.052;73.310;2022-09-03T10:41:24;99701.13;;;28.92;47.53
61874;BME280;49692;55.052;73.310;2022-09-03T10:50:20;99706.25;;;29.32;46.78
61874;BME280;49692;55.052;73.310;2022-09-03T10:56:10;99691.63;;;28.81;48.46
61874;BME280;49692;55.052;73.310;2022-09-03T11:07:18;99679.69;;;28.45;47.67
61874;BME280;49692;55.052;73.310;2022-09-03T11:10:18;99681.81;;;28.50;47.31
61874;BME280;49692;55.052;73.310;2022-09-03T11:13:08;99683.50;;;28.51;47.49
61874;BME280;49692;55.052;73.310;2022-09-03T11:19:15;99689.66;;;28.60;46.92
61874;BME280;49692;55.052;73.310;2022-09-03T11:21:45;99682.94;;;28.56;47.04
61874;BME280;49692;55.052;73.310;2022-09-03T11:24:18;99682.75;;;28.72;46.63
61874;BME280;49692;55.052;73.310;2022-09-03T11:26:54;99675.22;;;28.82;45.78
61874;BME280;49692;55.052;73.310;2022-09-03T11:38:19;99652.28;;;31.22;40.32
61874;BME280;49692;55.052;73.310;2022-09-03T11:41:12;99651.81;;;32.14;38.61
61874;BME280;49692;55.052;73.310;2022-09-03T11:43:42;99657.00;;;32.43;38.30
61874;BME280;49692;55.052;73.310;2022-09-03T11:46:26;99649.56;;;32.90;37.35
61874;BME280;49692;55.052;73.310;2022-09-03T11:48:56;99645.00;;;32.64;35.82
61874;BME280;49692;55.052;73.310;2022-09-03T11:54:01;99644.88;;;31.92;39.23
61874;BME280;49692;55.052;73.310;2022-09-03T11:56:34;99627.47;;;31.39;39.51
61874;BME280;49692;55.052;73.310;2022-09-03T12:02:12;99620.00;;;31.61;39.06
61874;BME280;49692;55.052;73.310;2022-09-03T12:19:57;99582.56;;;30.04;41.45
61874;BME280;49692;55.052;73.310;2022-09-03T12:22:29;99584.88;;;29.57;42.02
61874;BME280;49692;55.052;73.310;2022-09-03T12:25:12;99580.56;;;29.19;43.23
61874;BME280;49692;55.052;73.310;2022-09-03T12:27:42;99575.47;;;28.94;44.21
61874;BME280;49692;55.052;73.310;2022-09-03T12:30:20;99570.13;;;29.01;43.01
61874;BME280;49692;55.052;73.310;2022-09-03T12:32:50;99559.16;;;28.88;43.35
61874;BME280;49692;55.052;73.310;2022-09-03T12:35:23;99553.59;;;29.11;43.29
61874;BME280;49692;55.052;73.310;2022-09-03T12:37:52;99556.06;;;29.27;43.85
61874;BME280;49692;55.052;73.310;2022-09-03T12:40:24;99543.94;;;29.45;42.74
61874;BME280;49692;55.052;73.310;2022-09-03T12:42:52;99542.09;;;29.24;42.86
61874;BME280;49692;55.052;73.310;2022-09-03T12:45:26;99532.81;;;28.96;43.59
61874;BME280;49692;55.052;73.310;2022-09-03T12:47:53;99528.72;;;28.64;43.24
61874;BME280;49692;55.052;73.310;2022-09-03T12:50:25;99520.72;;;28.26;45.87
61874;BME280;49692;55.052;73.310;2022-09-03T12:52:58;99524.84;;;28.21;45.23
61874;BME280;49692;55.052;73.310;2022-09-03T12:58:14;99516.44;;;28.01;45.81
61874;BME280;49692;55.052;73.310;2022-09-03T13:01:21;99508.44;;;27.93;45.98
61874;BME280;49692;55.052;73.310;2022-09-03T13:06:25;99502.88;;;27.71;45.97
61874;BME280;49692;55.052;73.310;2022-09-03T13:09:05;99484.25;;;27.61;45.46
61874;BME280;49692;55.052;73.310;2022-09-03T13:11:34;99479.28;;;27.35;46.36
61874;BME280;49692;55.052;73.310;2022-09-03T13:14:10;99474.47;;;27.22;46.41
61874;BME280;49692;55.052;73.310;2022-09-03T13:21:54;99458.16;;;26.92;46.48
61874;BME280;49692;55.052;73.310;2022-09-03T13:24:43;99454.44;;;26.93;46.12
61874;BME280;49692;55.052;73.310;2022-09-03T13:30:21;99439.63;;;26.66;47.35
61874;BME280;49692;55.052;73.310;2022-09-03T13:36:01;99435.31;;;26.56;48.25
61874;BME280;49692;55.052;73.310;2022-09-03T13:38:45;99412.78;;;26.49;47.30
61874;BME280;49692;55.052;73.310;2022-09-03T13:41:31;99411.81;;;26.34;48.57
61874;BME280;49692;55.052;73.310;2022-09-03T13:44:13;99401.72;;;26.36;48.84
61874;BME280;49692;55.052;73.310;2022-09-03T13:46:54;99407.16;;;26.27;48.88
61874;BME280;49692;55.052;73.310;2022-09-03T13:53:08;99388.84;;;26.23;47.94
61874;BME280;49692;55.052;73.310;2022-09-03T13:55:57;99382.81;;;26.13;47.80
61874;BME280;49692;55.052;73.310;2022-09-03T14:01:10;99374.75;;;26.13;48.03
61874;BME280;49692;55.052;73.310;2022-09-03T14:10:03;99344.94;;;26.14;48.06
61874;BME280;49692;55.052;73.310;2022-09-03T14:12:47;99342.59;;;26.11;46.36
61874;BME280;49692;55.052;73.310;2022-09-03T14:15:34;99332.66;;;26.11;46.28
61874;BME280;49692;55.052;73.310;2022-09-03T14:18:45;99316.16;;;26.15;46.50
61874;BME280;49692;55.052;73.310;2022-09-03T14:21:29;99310.94;;;26.13;47.49
61874;BME280;49692;55.052;73.310;2022-09-03T14:24:42;99310.34;;;26.26;43.71
61874;BME280;49692;55.052;73.310;2022-09-03T14:27:30;99301.50;;;26.17;44.78
61874;BME280;49692;55.052;73.310;2022-09-03T14:30:05;99292.88;;;26.22;45.52
61874;BME280;49692;55.052;73.310;2022-09-03T14:33:08;99273.78;;;26.32;42.41
61874;BME280;49692;55.052;73.310;2022-09-03T14:39:02;99267.66;;;26.38;42.71
61874;BME280;49692;55.052;73.310;2022-09-03T14:44:23;99248.13;;;26.36;41.94
61874;BME280;49692;55.052;73.310;2022-09-03T14:50:13;99237.66;;;26.41;45.22
61874;BME280;49692;55.052;73.310;2022-09-03T14:53:10;99222.19;;;26.43;42.58
61874;BME280;49692;55.052;73.310;2022-09-03T15:02:34;99204.53;;;26.55;40.73
61874;BME280;49692;55.052;73.310;2022-09-03T15:08:27;99187.00;;;26.60;40.90
61874;BME280;49692;55.052;73.310;2022-09-03T15:10:59;99168.28;;;26.58;40.27
61874;BME280;49692;55.052;73.310;2022-09-03T15:14:17;99161.88;;;26.59;42.49
61874;BME280;49692;55.052;73.310;2022-09-03T15:17:16;99150.28;;;26.59;41.95
61874;BME280;49692;55.052;73.310;2022-09-03T15:23:01;99151.53;;;26.33;41.24
61874;BME280;49692;55.052;73.310;2022-09-03T15:31:44;99132.94;;;26.38;40.75
61874;BME280;49692;55.052;73.310;2022-09-03T15:37:46;99125.97;;;26.29;40.84
61874;BME280;49692;55.052;73.310;2022-09-03T15:43:32;99117.34;;;26.33;40.82
61874;BME280;49692;55.052;73.310;2022-09-03T15:46:03;99104.41;;;26.29;40.91
61874;BME280;49692;55.052;73.310;2022-09-03T15:48:47;99092.72;;;26.36;40.31
61874;BME280;49692;55.052;73.310;2022-09-03T15:51:35;99087.78;;;26.25;40.74
61874;BME280;49692;55.052;73.310;2022-09-03T15:54:14;99078.47;;;26.13;40.83
61874;BME280;49692;55.052;73.310;2022-09-03T15:57:08;99077.03;;;26.25;39.89
61874;BME280;49692;55.052;73.310;2022-09-03T16:00:07;99067.16;;;26.32;39.86
61874;BME280;49692;55.052;73.310;2022-09-03T16:02:51;99059.81;;;26.26;40.18
61874;BME280;49692;55.052;73.310;2022-09-03T16:08:21;99030.47;;;26.16;40.69
61874;BME280;49692;55.052;73.310;2022-09-03T16:11:06;99011.78;;;26.15;39.88
61874;BME280;49692;55.052;73.310;2022-09-03T16:16:51;99011.06;;;26.21;43.08
61874;BME280;49692;55.052;73.310;2022-09-03T16:19:46;99016.63;;;26.34;41.51
61874;BME280;49692;55.052;73.310;2022-09-03T16:22:25;99015.69;;;26.27;40.31
61874;BME280;49692;55.052;73.310;2022-09-03T16:25:13;99005.75;;;26.13;40.36
61874;BME280;49692;55.052;73.310;2022-09-03T16:27:59;99005.47;;;26.22;39.44
61874;BME280;49692;55.052;73.310;2022-09-03T16:30:46;98986.38;;;26.17;39.56
61874;BME280;49692;55.052;73.310;2022-09-03T16:33:32;98969.56;;;26.45;38.63
61874;BME280;49692;55.052;73.310;2022-09-03T16:38:51;98972.84;;;26.62;39.83
61874;BME280;49692;55.052;73.310;2022-09-03T16:41:24;98984.34;;;26.71;37.53
61874;BME280;49692;55.052;73.310;2022-09-03T16:59:08;98995.53;;;27.26;35.07
61874;BME280;49692;55.052;73.310;2022-09-03T17:02:14;98985.25;;;27.15;35.16
61874;BME280;49692;55.052;73.310;2022-09-03T17:07:41;98988.03;;;27.50;33.49
61874;BME280;49692;55.052;73.310;2022-09-03T17:10:44;98987.22;;;27.50;34.67
61874;BME280;49692;55.052;73.310;2022-09-03T17:16:27;98977.56;;;27.12;34.96